createdAt,value
2023-05-17T00:00:29.839Z,278.73
2023-05-17T00:01:29.909Z,276.62
2023-05-17T00:02:30.010Z,273.86
2023-05-17T00:03:30.074Z,274.32
2023-05-17T00:04:30.203Z,270.71
2023-05-17T00:05:30.372Z,269.38
2023-05-17T00:06:30.406Z,266.11
2023-05-17T00:07:30.442Z,263.35
2023-05-17T00:08:30.495Z,261.67
2023-05-17T00:09:30.576Z,257.18
2023-05-17T00:10:30.674Z,256.58
2023-05-17T00:11:30.759Z,251.10
2023-05-17T00:12:30.846Z,248.26
2023-05-17T00:13:30.931Z,243.85
2023-05-17T00:14:31.015Z,239.94
2023-05-17T00:15:31.109Z,239.59
2023-05-17T00:16:31.206Z,235.15
2023-05-17T00:17:31.362Z,230.05
2023-05-17T00:18:31.460Z,227.82
2023-05-17T00:19:31.480Z,224.87
2023-05-17T00:20:31.491Z,221.39
2023-05-17T00:21:31.575Z,217.88
2023-05-17T00:22:31.658Z,214.33
2023-05-17T00:23:31.737Z,209.16
2023-05-17T00:24:31.823Z,205.12
2023-05-17T00:25:31.892Z,202.47
2023-05-17T00:26:31.983Z,198.69
2023-05-17T00:27:32.070Z,196.90
2023-05-17T00:28:32.172Z,192.31
2023-05-17T00:29:32.240Z,191.75
2023-05-17T00:30:32.338Z,189.87
2023-05-17T00:31:32.425Z,189.65
2023-05-17T00:32:32.537Z,188.89
2023-05-17T00:33:32.653Z,189.98
2023-05-17T00:34:32.689Z,191.41
2023-05-17T00:35:32.743Z,192.76
2023-05-17T00:36:32.846Z,194.35
2023-05-17T00:37:32.919Z,194.69
2023-05-17T00:38:33.005Z,195.97
2023-05-17T00:39:33.115Z,195.97
2023-05-17T00:40:33.162Z,195.85
2023-05-17T00:41:33.239Z,194.92
2023-05-17T00:42:33.324Z,194.23
2023-05-17T00:43:33.402Z,194.92
2023-05-17T00:44:33.500Z,194.23
2023-05-17T00:45:33.597Z,192.53
2023-05-17T00:46:33.645Z,189.87
2023-05-17T00:47:33.799Z,189.21
2023-05-17T00:48:33.873Z,187.92
2023-05-17T00:49:33.877Z,187.49
2023-05-17T00:50:33.929Z,185.90
2023-05-17T00:51:34.005Z,185.17
2023-05-17T00:52:34.134Z,184.27
2023-05-17T00:53:34.182Z,185.29
2023-05-17T00:54:34.255Z,185.90
2023-05-17T00:55:34.331Z,185.49
2023-05-17T00:56:34.426Z,184.47
2023-05-17T00:57:34.502Z,182.86
2023-05-17T00:58:34.587Z,182.26
2023-05-17T00:59:34.681Z,182.46
2023-05-17T01:00:34.752Z,182.46
2023-05-17T01:01:34.809Z,182.26
2023-05-17T01:02:34.970Z,180.88
2023-05-17T01:03:35.047Z,181.67
2023-05-17T01:04:35.101Z,180.88
2023-05-17T01:05:35.156Z,179.91
2023-05-17T01:06:35.234Z,180.49
2023-05-17T01:07:35.326Z,178.00
2023-05-17T01:08:35.419Z,176.13
2023-05-17T01:09:35.488Z,173.57
2023-05-17T01:10:35.571Z,172.50
2023-05-17T01:11:35.654Z,168.34
2023-05-17T01:12:35.747Z,166.17
2023-05-17T01:13:35.810Z,165.19
2023-05-17T01:14:35.874Z,164.86
2023-05-17T01:15:35.954Z,164.70
2023-05-17T01:16:36.048Z,165.19
2023-05-17T01:17:36.191Z,164.38
2023-05-17T01:18:36.929Z,162.31
2023-05-17T01:19:36.303Z,161.37
2023-05-17T01:20:36.400Z,161.06
2023-05-17T01:21:36.393Z,160.29
2023-05-17T01:22:36.470Z,158.17
2023-05-17T01:23:36.555Z,156.69
2023-05-17T01:24:36.638Z,154.66
2023-05-17T01:25:36.720Z,153.67
2023-05-17T01:26:36.797Z,151.17
2023-05-17T01:27:36.875Z,149.29
2023-05-17T01:28:36.956Z,147.84
2023-05-17T01:29:37.035Z,146.03
2023-05-17T01:30:37.119Z,142.80
2023-05-17T01:31:37.195Z,141.23
2023-05-17T01:32:37.302Z,138.89
2023-05-17T01:33:37.463Z,137.41
2023-05-17T01:34:37.437Z,134.43
2023-05-17T01:35:37.505Z,130.65
2023-05-17T01:36:37.619Z,124.63
2023-05-17T01:37:37.665Z,118.96
2023-05-17T01:38:37.754Z,111.22
2023-05-17T01:39:37.832Z,104.82
2023-05-17T01:40:37.922Z,102.45
2023-05-17T01:41:38.052Z,98.64
2023-05-17T01:42:38.085Z,95.14
2023-05-17T01:43:38.163Z,91.80
2023-05-17T01:44:38.259Z,89.16
2023-05-17T01:45:38.320Z,85.70
2023-05-17T01:46:38.407Z,84.40
2023-05-17T01:47:38.536Z,82.49
2023-05-17T01:48:38.601Z,81.53
2023-05-17T01:49:38.634Z,80.35
2023-05-17T01:50:38.723Z,78.54
2023-05-17T01:51:38.802Z,74.62
2023-05-17T01:52:38.901Z,72.43
2023-05-17T01:53:38.985Z,71.44
2023-05-17T01:54:39.058Z,70.24
2023-05-17T01:55:39.132Z,70.66
2023-05-17T01:56:39.224Z,69.72
2023-05-17T01:57:39.320Z,69.20
2023-05-17T01:58:39.403Z,69.14
2023-05-17T01:59:39.477Z,68.02
2023-05-17T02:00:39.562Z,66.56
2023-05-17T02:01:39.636Z,66.61
2023-05-17T02:02:39.779Z,65.52
2023-05-17T02:03:39.884Z,64.61
2023-05-17T02:04:39.903Z,63.38
2023-05-17T02:05:39.945Z,62.63
2023-05-17T02:06:40.031Z,61.52
2023-05-17T02:07:40.143Z,61.70
2023-05-17T02:08:40.220Z,60.90
2023-05-17T02:09:40.280Z,60.33
2023-05-17T02:10:40.361Z,59.94
2023-05-17T02:11:40.449Z,59.77
2023-05-17T02:12:40.530Z,59.43
2023-05-17T02:13:40.631Z,59.17
2023-05-17T02:14:40.703Z,58.35
2023-05-17T02:15:40.796Z,58.35
2023-05-17T02:16:40.862Z,58.80
2023-05-17T02:17:41.106Z,59.26
2023-05-17T02:18:41.132Z,59.81
2023-05-17T02:19:41.132Z,60.68
2023-05-17T02:20:41.258Z,60.94
2023-05-17T02:21:41.292Z,61.34
2023-05-17T02:22:41.373Z,61.89
2023-05-17T02:23:41.474Z,60.99
2023-05-17T02:24:41.555Z,60.37
2023-05-17T02:25:41.633Z,60.02
2023-05-17T02:26:41.752Z,60.81
2023-05-17T02:27:41.794Z,61.48
2023-05-17T02:28:41.869Z,62.12
2023-05-17T02:29:41.974Z,62.81
2023-05-17T02:30:42.032Z,63.38
2023-05-17T02:31:42.117Z,63.77
2023-05-17T02:32:42.288Z,64.06
2023-05-17T02:33:42.399Z,64.91
2023-05-17T02:34:42.344Z,64.96
2023-05-17T02:35:42.443Z,64.56
2023-05-17T02:36:42.504Z,64.11
2023-05-17T02:37:42.578Z,64.06
2023-05-17T02:38:42.680Z,64.76
2023-05-17T02:39:42.725Z,65.16
2023-05-17T02:40:42.826Z,65.62
2023-05-17T02:41:42.913Z,65.42
2023-05-17T02:42:42.987Z,65.42
2023-05-17T02:43:43.070Z,65.31
2023-05-17T02:44:43.169Z,65.62
2023-05-17T02:45:43.241Z,66.88
2023-05-17T02:46:43.349Z,68.57
2023-05-17T02:47:43.518Z,69.54
2023-05-17T02:48:43.498Z,70.07
2023-05-17T02:49:43.593Z,72.06
2023-05-17T02:50:43.680Z,73.45
2023-05-17T02:51:44.770Z,73.13
2023-05-17T02:52:43.841Z,73.00
2023-05-17T02:53:43.940Z,72.49
2023-05-17T02:54:44.034Z,71.62
2023-05-17T02:55:44.080Z,71.14
2023-05-17T02:56:44.172Z,70.18
2023-05-17T02:57:44.251Z,69.20
2023-05-17T02:58:44.343Z,69.31
2023-05-17T02:59:44.443Z,68.86
2023-05-17T03:00:44.493Z,68.41
2023-05-17T03:01:44.575Z,67.58
2023-05-17T03:02:44.755Z,67.04
2023-05-17T03:03:44.886Z,66.29
2023-05-17T03:04:44.951Z,65.93
2023-05-17T03:05:44.944Z,64.76
2023-05-17T03:06:45.022Z,64.16
2023-05-17T03:07:45.107Z,63.92
2023-05-17T03:08:45.184Z,63.43
2023-05-17T03:09:45.273Z,63.00
2023-05-17T03:10:45.357Z,63.05
2023-05-17T03:11:45.457Z,62.07
2023-05-17T03:12:45.518Z,61.03
2023-05-17T03:13:45.626Z,59.94
2023-05-17T03:14:45.690Z,59.43
2023-05-17T03:15:45.788Z,58.97
2023-05-17T03:16:45.902Z,58.23
2023-05-17T03:17:46.018Z,59.09
2023-05-17T03:18:46.102Z,60.07
2023-05-17T03:19:46.134Z,61.03
2023-05-17T03:20:46.165Z,62.39
2023-05-17T03:21:46.222Z,62.35
2023-05-17T03:22:46.363Z,62.53
2023-05-17T03:23:46.390Z,62.86
2023-05-17T03:24:46.513Z,63.19
2023-05-17T03:25:46.572Z,63.48
2023-05-17T03:26:46.653Z,62.72
2023-05-17T03:27:46.746Z,62.72
2023-05-17T03:28:46.808Z,61.79
2023-05-17T03:29:46.889Z,61.93
2023-05-17T03:30:47.054Z,61.70
2023-05-17T03:31:47.067Z,61.39
2023-05-17T03:32:47.183Z,60.90
2023-05-17T03:33:47.252Z,60.59
2023-05-17T03:34:47.292Z,60.11
2023-05-17T03:35:47.369Z,59.85
2023-05-17T03:36:47.457Z,59.26
2023-05-17T03:37:47.540Z,58.84
2023-05-17T03:38:47.631Z,58.39
2023-05-17T03:39:47.734Z,58.19
2023-05-17T03:40:47.785Z,57.79
2023-05-17T03:41:47.877Z,57.47
2023-05-17T03:42:47.918Z,56.73
2023-05-17T03:43:48.028Z,56.50
2023-05-17T03:44:48.094Z,56.16
2023-05-17T03:45:48.168Z,56.58
2023-05-17T03:46:48.266Z,56.31
2023-05-17T03:47:48.399Z,56.42
2023-05-17T03:48:48.411Z,55.67
2023-05-17T03:49:48.462Z,55.02
2023-05-17T03:50:48.614Z,54.27
2023-05-17T03:51:48.615Z,54.23
2023-05-17T03:52:48.704Z,53.54
2023-05-17T03:53:48.782Z,53.27
2023-05-17T03:54:48.859Z,52.70
2023-05-17T03:55:48.938Z,51.72
2023-05-17T03:56:49.088Z,51.40
2023-05-17T03:57:49.121Z,51.37
2023-05-17T03:58:49.212Z,51.78
2023-05-17T03:59:49.280Z,53.50
2023-05-17T04:00:49.358Z,54.48
2023-05-17T04:01:49.476Z,55.82
2023-05-17T04:02:49.564Z,57.91
2023-05-17T04:03:49.644Z,60.90
2023-05-17T04:04:49.764Z,63.82
2023-05-17T04:05:49.770Z,67.74
2023-05-17T04:06:49.863Z,72.31
2023-05-17T04:07:49.972Z,76.60
2023-05-17T04:08:50.048Z,81.84
2023-05-17T04:09:50.128Z,86.85
2023-05-17T04:10:50.212Z,90.32
2023-05-17T04:11:50.279Z,91.90
2023-05-17T04:12:50.369Z,93.57
2023-05-17T04:13:50.449Z,96.10
2023-05-17T04:14:50.538Z,98.24
2023-05-17T04:15:50.631Z,102.20
2023-05-17T04:16:50.711Z,104.56
2023-05-17T04:17:50.890Z,108.27
2023-05-17T04:18:50.980Z,111.07
2023-05-17T04:19:51.116Z,114.57
2023-05-17T04:20:51.035Z,118.21
2023-05-17T04:21:51.125Z,123.80
2023-05-17T04:22:51.206Z,128.25
2023-05-17T04:23:51.300Z,131.58
2023-05-17T04:24:51.389Z,134.32
2023-05-17T04:25:51.479Z,135.96
2023-05-17T04:26:51.559Z,138.20
2023-05-17T04:27:51.638Z,140.05
2023-05-17T04:28:51.749Z,142.07
2023-05-17T04:29:51.781Z,143.78
2023-05-17T04:30:51.862Z,146.54
2023-05-17T04:31:51.945Z,146.16
2023-05-17T04:32:52.081Z,146.29
2023-05-17T04:33:52.160Z,148.62
2023-05-17T04:34:52.222Z,145.52
2023-05-17T04:35:52.327Z,146.03
2023-05-17T04:36:52.402Z,148.62
2023-05-17T04:37:52.485Z,151.45
2023-05-17T04:38:52.578Z,152.41
2023-05-17T04:39:52.676Z,156.25
2023-05-17T04:40:52.757Z,158.02
2023-05-17T04:41:52.853Z,158.92
2023-05-17T04:42:52.915Z,156.84
2023-05-17T04:43:53.008Z,156.98
2023-05-17T04:44:53.091Z,158.32
2023-05-17T04:45:53.185Z,159.98
2023-05-17T04:46:53.282Z,160.59
2023-05-17T04:47:53.418Z,158.32
2023-05-17T04:48:53.658Z,155.67
2023-05-17T04:49:53.536Z,151.86
2023-05-17T04:50:53.635Z,150.76
2023-05-17T04:51:53.765Z,152.13
2023-05-17T04:52:53.810Z,152.41
2023-05-17T04:53:53.905Z,153.39
2023-05-17T04:54:54.050Z,153.81
2023-05-17T04:55:54.060Z,158.92
2023-05-17T04:56:54.158Z,164.05
2023-05-17T04:57:54.257Z,167.16
2023-05-17T04:58:54.313Z,167.67
2023-05-17T04:59:54.400Z,173.04
2023-05-17T05:00:54.539Z,178.00
2023-05-17T05:01:54.568Z,182.07
2023-05-17T05:03:05.518Z,185.90
2023-05-17T05:03:55.803Z,185.59
2023-05-17T05:04:55.580Z,185.70
2023-05-17T05:05:54.909Z,182.86
2023-05-17T05:06:55.002Z,186.11
2023-05-17T05:07:55.082Z,189.21
2023-05-17T05:08:55.174Z,192.08
2023-05-17T05:09:55.270Z,190.97
2023-05-17T05:10:55.391Z,191.41
2023-05-17T05:11:55.460Z,194.23
2023-05-17T05:12:55.543Z,196.67
2023-05-17T05:13:55.621Z,195.50
2023-05-17T05:14:55.705Z,195.74
2023-05-17T05:15:55.802Z,200.26
2023-05-17T05:16:55.915Z,201.73
2023-05-17T05:17:56.025Z,200.99
2023-05-17T05:18:56.095Z,199.17
2023-05-17T05:19:56.183Z,200.87
2023-05-17T05:20:56.191Z,207.06
2023-05-17T05:21:56.276Z,211.85
2023-05-17T05:22:56.344Z,217.16
2023-05-17T05:23:56.461Z,221.39
2023-05-17T05:24:56.527Z,227.67
2023-05-17T05:25:56.615Z,228.77
2023-05-17T05:26:56.912Z,233.64
2023-05-17T05:27:56.781Z,234.98
2023-05-17T05:28:56.876Z,230.38
2023-05-17T05:29:56.968Z,229.09
2023-05-17T05:30:57.060Z,237.01
2023-05-17T05:31:57.170Z,239.59
2023-05-17T05:32:57.308Z,238.72
2023-05-17T05:33:57.366Z,246.40
2023-05-17T05:34:57.401Z,254.60
2023-05-17T05:35:57.467Z,263.77
2023-05-17T05:36:57.592Z,270.93
2023-05-17T05:37:57.664Z,266.11
2023-05-17T05:38:57.713Z,260.43
2023-05-17T05:39:57.805Z,247.51
2023-05-17T05:40:57.912Z,231.02
2023-05-17T05:41:57.972Z,217.02
2023-05-17T05:42:58.013Z,212.26
2023-05-17T05:43:58.130Z,206.15
2023-05-17T05:44:58.196Z,198.93
2023-05-17T05:45:58.255Z,194.46
2023-05-17T05:46:58.359Z,200.38
2023-05-17T05:47:58.459Z,205.25
2023-05-17T05:48:58.593Z,212.26
2023-05-17T05:49:58.569Z,210.36
2023-05-17T05:50:58.611Z,212.12
2023-05-17T05:51:58.704Z,218.89
2023-05-17T05:53:10.467Z,227.82
2023-05-17T05:53:58.956Z,239.94
2023-05-17T05:54:58.892Z,251.87
2023-05-17T05:55:59.012Z,247.89
2023-05-17T05:56:59.196Z,242.59
2023-05-17T05:57:59.173Z,237.35
2023-05-17T05:58:59.274Z,226.88
2023-05-17T05:59:59.334Z,219.48
2023-05-17T06:00:59.415Z,205.25
2023-05-17T06:01:59.512Z,202.47
2023-05-17T06:02:59.614Z,206.67
2023-05-17T06:03:59.644Z,213.36
2023-05-17T06:04:59.851Z,218.31
2023-05-17T06:05:59.915Z,216.87
2023-05-17T06:06:59.898Z,219.62
2023-05-17T06:07:59.959Z,226.88
2023-05-17T06:09:00.056Z,227.98
2023-05-17T06:10:00.197Z,227.35
2023-05-17T06:11:00.249Z,227.04
2023-05-17T06:12:00.299Z,232.98
2023-05-17T06:13:00.394Z,238.21
2023-05-17T06:14:00.524Z,245.67
2023-05-17T06:15:00.579Z,249.20
2023-05-17T06:16:00.672Z,250.15
2023-05-17T06:17:00.764Z,246.04
2023-05-17T06:18:00.913Z,243.31
2023-05-17T06:19:01.039Z,239.42
2023-05-17T06:20:01.076Z,241.70
2023-05-17T06:21:01.018Z,238.21
2023-05-17T06:22:01.231Z,243.49
2023-05-17T06:23:01.214Z,255.58
2023-05-17T06:24:02.860Z,267.85
2023-05-17T06:25:01.354Z,277.55
2023-05-17T06:26:01.515Z,285.00
2023-05-17T06:27:01.541Z,287.49
2023-05-17T06:28:01.628Z,298.97
2023-05-17T06:29:01.749Z,302.26
2023-05-17T06:30:02.489Z,296.55
2023-05-17T06:31:01.892Z,301.43
2023-05-17T06:32:01.948Z,300.06
2023-05-17T06:33:02.122Z,290.79
2023-05-17T06:34:02.158Z,288.24
2023-05-17T06:35:02.318Z,289.51
2023-05-17T06:37:02.448Z,297.08
2023-05-17T06:38:02.501Z,305.06
2023-05-17T06:39:02.602Z,305.63
2023-05-17T06:40:09.939Z,303.93
2023-05-17T06:41:02.792Z,311.41
2023-05-17T06:42:02.847Z,314.38
2023-05-17T06:43:04.347Z,323.65
2023-05-17T06:44:03.034Z,328.16
2023-05-17T06:45:03.118Z,328.49
2023-05-17T06:46:03.176Z,339.67
2023-05-17T06:47:03.296Z,346.82
2023-05-17T06:48:03.442Z,351.64
2023-05-17T06:49:03.495Z,357.36
2023-05-17T06:50:03.512Z,366.92
2023-05-17T06:51:03.562Z,360.89
2023-05-17T06:52:03.678Z,356.20
2023-05-17T06:53:03.724Z,346.82
2023-05-17T06:54:03.816Z,342.85
2023-05-17T06:55:03.918Z,344.29
2023-05-17T06:56:04.010Z,335.18
2023-05-17T06:57:04.102Z,337.58
2023-05-17T06:58:04.188Z,340.72
2023-05-17T06:59:04.314Z,340.37
2023-05-17T07:00:04.940Z,355.05
2023-05-17T07:01:04.437Z,354.29
2023-05-17T07:02:04.545Z,360.10
2023-05-17T07:03:04.726Z,362.87
2023-05-17T07:04:04.783Z,364.08
2023-05-17T07:05:04.831Z,368.15
2023-05-17T07:06:04.896Z,374.85
2023-05-17T07:07:04.995Z,404.67
2023-05-17T07:08:05.089Z,438.62
2023-05-17T07:09:05.204Z,446.52
2023-05-17T07:10:05.265Z,448.91
2023-05-17T07:11:05.414Z,453.17
2023-05-17T07:12:05.412Z,459.70
2023-05-17T07:13:05.513Z,461.29
2023-05-17T07:14:05.599Z,468.72
2023-05-17T07:15:05.706Z,498.01
2023-05-17T07:16:05.823Z,510.55
2023-05-17T07:17:05.886Z,497.27
2023-05-17T07:18:06.109Z,497.27
2023-05-17T07:19:06.122Z,537.61
2023-05-17T07:20:06.418Z,552.71
2023-05-17T07:21:06.170Z,550.89
2023-05-17T07:22:06.266Z,541.97
2023-05-17T07:23:06.352Z,551.34
2023-05-17T07:24:06.423Z,548.63
2023-05-17T07:25:06.516Z,571.59
2023-05-17T07:26:06.608Z,590.24
2023-05-17T07:27:06.701Z,587.13
2023-05-17T07:28:06.802Z,587.13
2023-05-17T07:29:06.862Z,576.51
2023-05-17T07:30:06.919Z,545.06
2023-05-17T07:31:07.017Z,520.88
2023-05-17T07:32:07.130Z,529.53
2023-05-17T07:33:07.224Z,527.03
2023-05-17T07:34:07.296Z,522.91
2023-05-17T07:35:07.368Z,514.08
2023-05-17T07:36:07.480Z,514.87
2023-05-17T07:37:07.540Z,499.13
2023-05-17T07:38:07.603Z,491.43
2023-05-17T07:39:07.669Z,485.02
2023-05-17T07:40:07.783Z,477.75
2023-05-17T07:41:07.830Z,466.76
2023-05-17T07:42:07.903Z,459.70
2023-05-17T07:43:08.108Z,449.82
2023-05-17T07:44:08.061Z,466.11
2023-05-17T07:45:08.152Z,499.87
2023-05-17T07:46:08.242Z,544.61
2023-05-17T07:47:08.381Z,561.52
2023-05-17T07:48:08.542Z,593.38
2023-05-17T07:49:08.641Z,611.26
2023-05-17T07:50:08.645Z,644.21
2023-05-17T07:51:08.677Z,674.73
2023-05-17T07:52:08.833Z,706.04
2023-05-17T07:53:08.849Z,711.30
2023-05-17T07:54:08.898Z,697.95
2023-05-17T07:55:08.994Z,673.37
2023-05-17T07:56:09.009Z,646.70
2023-05-17T07:57:09.115Z,643.59
2023-05-17T07:58:09.241Z,633.84
2023-05-17T07:59:09.275Z,616.33
2023-05-17T08:00:09.369Z,599.22
2023-05-17T08:01:09.435Z,589.20
2023-05-17T08:02:09.504Z,603.54
2023-05-17T08:03:09.606Z,628.48
2023-05-17T08:04:09.731Z,652.37
2023-05-17T08:05:09.762Z,692.17
2023-05-17T08:06:09.877Z,703.08
2023-05-17T08:07:09.914Z,707.54
2023-05-17T08:08:10.005Z,694.33
2023-05-17T08:09:10.043Z,682.29
2023-05-17T08:10:10.143Z,682.99
2023-05-17T08:11:10.191Z,691.46
2023-05-17T08:12:10.295Z,693.61
2023-05-17T08:13:10.390Z,686.49
2023-05-17T08:14:10.425Z,671.34
2023-05-17T08:15:10.509Z,696.49
2023-05-17T08:16:14.232Z,748.69
2023-05-17T08:17:10.695Z,777.26
2023-05-17T08:18:10.811Z,794.31
2023-05-17T08:19:10.941Z,791.03
2023-05-17T08:20:10.977Z,773.67
2023-05-17T08:21:11.084Z,759.64
2023-05-17T08:22:11.080Z,765.28
2023-05-17T08:23:11.191Z,777.71
2023-05-17T08:24:11.312Z,800.00
2023-05-17T08:25:11.323Z,812.12
2023-05-17T08:26:11.406Z,799.52
2023-05-17T08:27:11.477Z,789.63
2023-05-17T08:28:11.537Z,823.09
2023-05-17T08:29:11.649Z,817.07
2023-05-17T08:30:14.918Z,812.61
2023-05-17T08:31:11.823Z,790.09
2023-05-17T08:32:12.051Z,768.35
2023-05-17T08:33:12.035Z,766.59
2023-05-17T08:34:12.131Z,771.89
2023-05-17T08:35:12.184Z,792.90
2023-05-17T08:36:12.247Z,811.14
2023-05-17T08:37:12.378Z,814.59
2023-05-17T08:38:12.400Z,800.00
2023-05-17T08:39:12.505Z,800.00
2023-05-17T08:40:12.606Z,772.33
2023-05-17T08:41:12.668Z,748.60
2023-05-17T08:42:12.701Z,731.51
2023-05-17T08:43:12.758Z,717.40
2023-05-17T08:44:12.859Z,684.39
2023-05-17T08:45:12.971Z,687.90
2023-05-17T08:46:13.024Z,676.78
2023-05-17T08:47:13.115Z,654.92
2023-05-17T08:48:13.373Z,662.70
2023-05-17T08:49:13.376Z,697.22
2023-05-17T08:50:13.536Z,724.38
2023-05-17T08:51:13.425Z,757.06
2023-05-17T08:52:13.518Z,817.07
2023-05-17T08:53:13.766Z,878.69
2023-05-17T08:54:13.651Z,939.69
2023-05-17T08:55:13.768Z,990.39
2023-05-17T08:56:13.843Z,1022.12
2023-05-17T08:57:13.909Z,1031.56
2023-05-17T08:58:14.032Z,1029.98
2023-05-17T08:59:14.059Z,1002.99
2023-05-17T09:00:14.144Z,968.91
2023-05-17T09:01:14.261Z,943.66
2023-05-17T09:02:14.384Z,922.23
2023-05-17T09:03:14.554Z,901.75
2023-05-17T09:04:14.530Z,871.26
2023-05-17T09:05:14.794Z,848.10
2023-05-17T09:06:14.666Z,819.07
2023-05-17T09:07:15.966Z,802.40
2023-05-17T09:08:14.782Z,795.25
2023-05-17T09:09:14.881Z,790.56
2023-05-17T09:10:14.989Z,780.89
2023-05-17T09:11:15.055Z,769.23
2023-05-17T09:12:15.105Z,765.71
2023-05-17T09:13:15.242Z,763.10
2023-05-17T09:14:15.293Z,753.66
2023-05-17T09:15:15.458Z,766.15
2023-05-17T09:16:15.450Z,768.35
2023-05-17T09:17:15.522Z,767.47
2023-05-17T09:18:17.852Z,782.25
2023-05-17T09:19:15.767Z,777.71
2023-05-17T09:20:15.807Z,783.62
2023-05-17T09:21:15.855Z,775.91
2023-05-17T09:22:15.951Z,794.31
2023-05-17T09:23:16.000Z,797.62
2023-05-17T09:24:16.104Z,804.32
2023-05-17T09:25:16.222Z,813.60
2023-05-17T09:26:16.285Z,844.36
2023-05-17T09:27:16.386Z,867.88
2023-05-17T09:28:16.487Z,891.55
2023-05-17T09:29:16.562Z,955.78
2023-05-17T09:30:16.614Z,995.54
2023-05-17T09:31:16.720Z,1017.46
2023-05-17T09:32:16.753Z,1035.55
2023-05-17T09:33:18.762Z,1045.24
2023-05-17T09:34:16.906Z,1083.27
2023-05-17T09:35:16.962Z,1094.77
2023-05-17T09:36:17.059Z,1096.56
2023-05-17T09:37:17.208Z,1093.88
2023-05-17T09:38:17.216Z,1077.17
2023-05-17T09:39:17.318Z,1053.46
2023-05-17T09:40:17.408Z,1041.99
2023-05-17T09:41:17.481Z,1040.37
2023-05-17T09:42:17.601Z,1023.68
2023-05-17T09:43:17.677Z,1026.03
2023-05-17T09:44:17.739Z,998.51
2023-05-17T09:45:17.817Z,1006.76
2023-05-17T09:46:17.916Z,992.59
2023-05-17T09:47:17.964Z,1025.25
2023-05-17T09:48:18.167Z,1043.61
2023-05-17T09:49:18.185Z,1069.43
2023-05-17T09:50:18.237Z,1128.90
2023-05-17T09:51:18.354Z,1133.67
2023-05-17T09:52:19.047Z,1126.05
2023-05-17T09:53:18.512Z,1113.88
2023-05-17T09:54:18.578Z,1099.26
2023-05-17T09:55:18.677Z,1097.46
2023-05-17T09:56:18.731Z,1101.97
2023-05-17T09:57:18.812Z,1096.56
2023-05-17T09:58:18.931Z,1072.86
2023-05-17T09:59:18.994Z,1114.81
2023-05-17T10:00:19.099Z,1179.58
2023-05-17T10:01:19.162Z,1225.98
2023-05-17T10:02:19.201Z,1236.16
2023-05-17T10:03:19.373Z,1247.67
2023-05-17T10:04:19.316Z,1266.54
2023-05-17T10:05:19.446Z,1246.51
2023-05-17T10:06:28.198Z,1233.89
2023-05-17T10:07:19.589Z,1184.79
2023-05-17T10:08:19.671Z,1171.33
2023-05-17T10:09:19.729Z,1108.35
2023-05-17T10:10:19.845Z,1040.37
2023-05-17T10:11:19.868Z,997.02
2023-05-17T10:12:19.967Z,959.20
2023-05-17T10:13:20.060Z,940.35
2023-05-17T10:14:20.168Z,917.81
2023-05-17T10:15:20.242Z,927.34
2023-05-17T10:16:20.326Z,914.67
2023-05-17T10:17:20.399Z,919.07
2023-05-17T10:18:20.599Z,943.66
2023-05-17T10:19:20.700Z,950.35
2023-05-17T10:20:20.783Z,957.14
2023-05-17T10:21:20.739Z,969.61
2023-05-17T10:22:23.742Z,989.66
2023-05-17T10:23:20.912Z,1004.50
2023-05-17T10:24:21.024Z,1038.76
2023-05-17T10:25:21.135Z,1065.18
2023-05-17T10:26:21.154Z,1105.61
2023-05-17T10:27:21.214Z,1107.44
2023-05-17T10:28:21.311Z,1118.53
2023-05-17T10:29:21.502Z,1082.39
2023-05-17T10:30:21.473Z,1053.46
2023-05-17T10:31:21.532Z,998.51
2023-05-17T10:32:21.667Z,953.06
2023-05-17T10:33:21.750Z,920.33
2023-05-17T10:34:22.065Z,917.81
2023-05-17T10:35:21.912Z,890.96
2023-05-17T10:36:21.950Z,888.01
2023-05-17T10:37:22.067Z,888.59
2023-05-17T10:38:26.178Z,907.86
2023-05-17T10:39:22.232Z,925.41
2023-05-17T10:40:22.333Z,936.41
2023-05-17T10:41:22.379Z,935.10
2023-05-17T10:42:22.512Z,944.33
2023-05-17T10:43:22.578Z,981.68
2023-05-17T10:44:22.648Z,1010.56
2023-05-17T10:45:22.753Z,1004.50
2023-05-17T10:46:22.798Z,1034.75
2023-05-17T10:47:22.937Z,1040.37
2023-05-17T10:48:23.049Z,1054.29
2023-05-17T10:49:24.713Z,1079.77
2023-05-17T10:50:23.141Z,1117.60
2023-05-17T10:51:23.191Z,1175.44
2023-05-17T10:52:23.293Z,1210.48
2023-05-17T10:53:23.358Z,1238.45
2023-05-17T10:54:23.428Z,1294.69
2023-05-17T10:55:23.518Z,1329.36
2023-05-17T10:56:23.630Z,1338.66
2023-05-17T10:57:23.696Z,1365.95
2023-05-17T10:58:23.753Z,1322.80
2023-05-17T10:59:23.855Z,1282.30
2023-05-17T11:00:23.912Z,1251.17
2023-05-17T11:01:23.971Z,1245.35
2023-05-17T11:02:24.118Z,1215.97
2023-05-17T11:03:24.189Z,1183.74
2023-05-17T11:04:24.340Z,1163.19
2023-05-17T11:05:24.380Z,1162.19
2023-05-17T11:06:25.853Z,1151.20
2023-05-17T11:07:24.474Z,1139.45
2023-05-17T11:08:24.550Z,1140.43
2023-05-17T11:09:24.706Z,1182.70
2023-05-17T11:10:24.695Z,1210.48
2023-05-17T11:11:25.117Z,1229.36
2023-05-17T11:12:24.822Z,1258.21
2023-05-17T11:13:24.889Z,1312.44
2023-05-17T11:14:24.946Z,1375.77
2023-05-17T11:15:25.048Z,1387.16
2023-05-17T11:16:25.149Z,1377.18
2023-05-17T11:17:25.298Z,1374.36
2023-05-17T11:18:30.730Z,1354.90
2023-05-17T11:19:25.430Z,1332.01
2023-05-17T11:20:25.682Z,1265.34
2023-05-17T11:21:25.574Z,1208.30
2023-05-17T11:22:25.625Z,1161.18
2023-05-17T11:23:25.720Z,1137.52
2023-05-17T11:24:25.788Z,1099.26
2023-05-17T11:25:25.921Z,1105.61
2023-05-17T11:26:25.984Z,1082.39
2023-05-17T11:27:26.091Z,1097.46
2023-05-17T11:28:26.154Z,1107.44
2023-05-17T11:29:26.218Z,1092.98
2023-05-17T11:30:26.502Z,1037.15
2023-05-17T11:31:26.390Z,1011.32
2023-05-17T11:32:26.520Z,1018.24
2023-05-17T11:33:33.478Z,1018.24
2023-05-17T12:54:09.479Z,24.36
2023-05-17T12:55:10.550Z,57.19
2023-05-17T12:56:10.603Z,101.64
2023-05-17T12:57:12.532Z,152.55
2023-05-17T12:58:10.762Z,205.76
2023-05-17T12:59:10.872Z,262.93
2023-05-17T13:00:10.925Z,313.78
2023-05-17T13:01:10.975Z,362.08
2023-05-17T13:02:11.159Z,407.38
2023-05-17T13:03:11.222Z,458.45
2023-05-17T13:04:11.396Z,516.86
2023-05-17T13:05:11.276Z,542.41
2023-05-17T13:06:11.376Z,567.23
2023-05-17T13:07:11.460Z,582.03
2023-05-17T13:08:11.560Z,611.82
2023-05-17T13:09:11.681Z,651.73
2023-05-17T13:10:11.747Z,660.74
2023-05-17T13:11:11.824Z,682.99
2023-05-17T13:12:11.919Z,698.67
2023-05-17T13:13:11.978Z,693.61
2023-05-17T13:14:12.059Z,701.60
2023-05-17T13:15:12.106Z,728.32
2023-05-17T13:16:12.257Z,749.02
2023-05-17T13:17:12.280Z,760.50
2023-05-17T13:18:12.450Z,810.65
2023-05-17T13:19:12.452Z,869.00
2023-05-17T13:20:12.660Z,917.18
2023-05-17T13:21:12.596Z,966.11
2023-05-17T13:22:12.685Z,991.12
2023-05-17T13:23:12.782Z,1012.08
2023-05-17T13:24:12.909Z,1049.33
2023-05-17T13:25:15.051Z,1045.24
2023-05-17T13:26:13.052Z,1050.16
2023-05-17T13:27:13.163Z,1021.34
2023-05-17T13:28:13.190Z,1023.68
2023-05-17T13:29:13.304Z,1021.34
2023-05-17T13:30:13.366Z,1032.36
2023-05-17T13:31:13.447Z,1026.03
2023-05-17T13:32:13.583Z,1043.61
2023-05-17T13:33:13.706Z,1052.63
2023-05-17T13:34:13.716Z,1042.80
2023-05-17T13:35:13.769Z,1053.46
2023-05-17T13:36:13.836Z,1019.79
2023-05-17T13:37:13.939Z,1039.56
2023-05-17T13:38:13.993Z,1046.88
2023-05-17T13:39:14.113Z,1063.49
2023-05-17T13:40:14.151Z,1082.39
2023-05-17T13:41:14.211Z,1084.14
2023-05-17T13:42:14.336Z,1086.78
2023-05-17T13:43:15.393Z,1073.72
2023-05-17T13:44:14.476Z,1076.31
2023-05-17T13:45:14.604Z,1079.77
2023-05-17T13:46:14.662Z,1077.17
2023-05-17T13:47:14.756Z,1086.78
2023-05-17T13:48:14.963Z,1070.29
2023-05-17T13:49:14.970Z,1066.03
2023-05-17T13:50:15.009Z,1041.18
2023-05-17T13:51:15.070Z,1046.06